createdAt,value
2018-10-11T11:48:20.023Z,14088.00
2018-10-11T11:49:19.989Z,12660.00
2018-10-11T11:50:19.993Z,12412.00
2018-10-11T11:51:19.960Z,12464.00
2018-10-11T11:52:19.943Z,12804.00
2018-10-11T11:53:19.931Z,12964.00
2018-10-11T11:54:19.917Z,12272.00
2018-10-11T11:55:19.916Z,10976.00
2018-10-11T11:56:19.892Z,11600.00
2018-10-11T11:57:19.878Z,13672.00
2018-10-11T11:58:19.874Z,13960.00
2018-10-11T11:59:19.850Z,13092.00
2018-10-11T12:00:19.856Z,11840.00
2018-10-11T12:01:19.835Z,12040.00
2018-10-11T12:02:19.813Z,12964.00
2018-10-11T12:03:19.800Z,12548.00
2018-10-11T12:04:19.787Z,13384.00
2018-10-11T12:05:19.779Z,14728.00
2018-10-11T12:06:19.774Z,37280.00
2018-10-11T12:07:19.754Z,54752.00
2018-10-11T12:08:19.735Z,52736.00
2018-10-11T12:09:19.726Z,49952.00
2018-10-11T12:10:19.755Z,47200.00
2018-10-11T12:11:19.722Z,51936.00
2018-10-11T12:12:19.688Z,52992.00
2018-10-11T12:13:19.684Z,44000.00
2018-10-11T12:14:19.676Z,47712.00
2018-10-11T12:15:19.656Z,48928.00
2018-10-11T12:16:19.681Z,51040.00
2018-10-11T12:17:19.631Z,41088.00
2018-10-11T12:18:19.624Z,26304.00
2018-10-11T12:19:19.606Z,27936.00
2018-10-11T12:20:19.598Z,33152.00
2018-10-11T12:21:19.589Z,36832.00
2018-10-11T12:22:19.591Z,35456.00
2018-10-11T12:23:19.561Z,34976.00
2018-10-11T12:24:19.557Z,30432.00
2018-10-11T12:25:19.541Z,23040.00
2018-10-11T12:26:19.538Z,27040.00
2018-10-11T12:27:19.540Z,34336.00
2018-10-11T12:28:19.569Z,21568.00
2018-10-11T12:29:19.496Z,16356.00
2018-10-11T12:30:19.488Z,17984.00
2018-10-11T12:31:19.476Z,26048.00
2018-10-11T12:32:19.467Z,16960.00
2018-10-11T12:33:19.470Z,28896.00
2018-10-11T12:34:19.439Z,33696.00
2018-10-11T12:35:19.512Z,41920.00
2018-10-11T12:36:19.431Z,42112.00
2018-10-11T12:37:19.408Z,44896.00
2018-10-11T12:38:19.418Z,38144.00
2018-10-11T12:39:19.383Z,36640.00
2018-10-11T12:40:19.377Z,39456.00
2018-10-11T12:41:19.363Z,39232.00
2018-10-11T12:42:19.359Z,40000.00
2018-10-11T12:43:19.342Z,38560.00
2018-10-11T12:44:19.370Z,33792.00
2018-10-11T12:45:19.380Z,34400.00
2018-10-11T12:46:19.315Z,38304.00
2018-10-11T12:47:19.298Z,39008.00
2018-10-11T12:48:19.288Z,32384.00
2018-10-11T12:49:19.287Z,26112.00
2018-10-11T12:50:19.289Z,22496.00
2018-10-11T12:51:19.256Z,23136.00
2018-10-11T12:52:19.246Z,33760.00
2018-10-11T12:53:19.235Z,34496.00
2018-10-11T12:54:19.273Z,23552.00
2018-10-11T12:55:19.242Z,17952.00
2018-10-11T12:56:19.309Z,22656.00
2018-10-11T12:57:20.844Z,16240.00
2018-10-11T12:58:19.191Z,13724.00
2018-10-11T12:59:19.174Z,12604.00
2018-10-11T13:00:19.167Z,12472.00
2018-10-11T13:01:21.128Z,14540.00
2018-10-11T13:02:19.155Z,16544.00
2018-10-11T13:03:19.186Z,17728.00
2018-10-11T13:04:19.127Z,16992.00
2018-10-11T13:05:19.112Z,16512.00
2018-10-11T13:06:19.104Z,13876.00
2018-10-11T13:07:19.115Z,12380.00
2018-10-11T13:08:19.080Z,12364.00
2018-10-11T13:09:19.144Z,12408.00
2018-10-11T13:10:19.057Z,13872.00
2018-10-11T13:11:19.046Z,12476.00
2018-10-11T13:12:19.038Z,15960.00
2018-10-11T13:13:19.037Z,11504.00
2018-10-11T13:14:19.014Z,11488.00
2018-10-11T13:15:19.008Z,14016.00
2018-10-11T13:16:18.996Z,12228.00
2018-10-11T13:17:18.984Z,11560.00
2018-10-11T13:18:18.989Z,11328.00
2018-10-11T13:19:18.960Z,11512.00
2018-10-11T13:20:18.947Z,10868.00
2018-10-11T13:21:18.935Z,10324.00
2018-10-11T13:22:18.927Z,10144.00
2018-10-11T13:23:18.928Z,9952.00
2018-10-11T13:24:18.904Z,9816.00
2018-10-11T13:25:18.893Z,9692.00
2018-10-11T13:26:18.884Z,9624.00
2018-10-11T13:27:18.871Z,9608.00
2018-10-11T13:28:18.882Z,9636.00
2018-10-11T13:29:18.852Z,9664.00
2018-10-11T13:30:18.839Z,9620.00
2018-10-11T13:31:18.825Z,9612.00
2018-10-11T13:32:18.816Z,9264.00
2018-10-11T13:33:18.801Z,9096.00
2018-10-11T13:34:18.820Z,8996.00
2018-10-11T13:35:18.840Z,9000.00
2018-10-11T13:36:18.776Z,9020.00
2018-10-11T13:37:18.760Z,9316.00
2018-10-11T13:38:18.750Z,9940.00
2018-10-11T13:39:18.738Z,9720.00
2018-10-11T13:40:18.748Z,9708.00
2018-10-11T13:41:18.803Z,9024.00
2018-10-11T13:42:18.705Z,8624.00
2018-10-11T13:43:18.691Z,8388.00
2018-10-11T13:44:18.720Z,8408.00
2018-10-11T13:45:18.669Z,8364.00
2018-10-11T13:46:18.658Z,8272.00
2018-10-11T13:47:18.657Z,8184.00
2018-10-11T13:48:18.637Z,8080.00
2018-10-11T13:49:18.625Z,7980.00
2018-10-11T13:50:18.626Z,7876.00
2018-10-11T13:51:18.600Z,7784.00
2018-10-11T13:52:21.684Z,7736.00
2018-10-11T13:53:21.324Z,7716.00
2018-10-11T13:54:18.602Z,7632.00
2018-10-11T13:55:18.553Z,7480.00
2018-10-11T13:56:18.542Z,7324.00
2018-10-11T13:57:20.895Z,7172.00
2018-10-11T13:58:18.519Z,7056.00
2018-10-11T13:59:18.506Z,6884.00
2018-10-11T14:00:18.513Z,6788.00
2018-10-11T14:01:18.486Z,6644.00
2018-10-11T14:02:18.473Z,6564.00
2018-10-11T14:03:18.461Z,6392.00
2018-10-11T14:04:18.452Z,6256.00
2018-10-11T14:05:18.452Z,6192.00
2018-10-11T14:06:18.427Z,6164.00
2018-10-11T14:07:18.415Z,6196.00
2018-10-11T14:08:18.408Z,6304.00
2018-10-11T14:09:18.395Z,6572.00
2018-10-11T14:10:18.402Z,7008.00
2018-10-11T14:11:18.371Z,7644.00
2018-10-11T14:12:18.359Z,8756.00
2018-10-11T14:13:20.485Z,9600.00
2018-10-11T14:14:18.332Z,10084.00
2018-10-11T14:15:18.333Z,10324.00
2018-10-11T14:16:18.307Z,10448.00
2018-10-11T14:17:18.304Z,10796.00
2018-10-11T14:18:18.284Z,11292.00
2018-10-11T14:19:18.270Z,11892.00
2018-10-11T14:20:18.277Z,12468.00
2018-10-11T14:21:18.247Z,12924.00
2018-10-11T14:22:18.238Z,13268.00
2018-10-11T14:23:18.232Z,13556.00
2018-10-11T14:24:18.236Z,13720.00
2018-10-11T14:25:18.223Z,13816.00
2018-10-11T14:26:18.195Z,13808.00
2018-10-11T14:27:18.176Z,13656.00
2018-10-11T14:28:18.163Z,13308.00
2018-10-11T14:29:18.157Z,12924.00
2018-10-11T14:30:18.142Z,12580.00
2018-10-11T14:31:18.150Z,12108.00
2018-10-11T14:32:18.117Z,11584.00
2018-10-11T14:33:18.110Z,11164.00
2018-10-11T14:34:18.096Z,10836.00
2018-10-11T14:35:18.086Z,10568.00
2018-10-11T14:36:18.124Z,10412.00
2018-10-11T14:37:18.140Z,10408.00
2018-10-11T14:38:18.053Z,10412.00
2018-10-11T14:39:18.042Z,10316.00
2018-10-11T14:40:18.026Z,10064.00
2018-10-11T14:41:18.016Z,9736.00
2018-10-11T14:42:18.026Z,9336.00
2018-10-11T14:43:18.023Z,8852.00
2018-10-11T14:44:17.979Z,8364.00
2018-10-11T14:45:17.968Z,7912.00
2018-10-11T14:46:17.959Z,7600.00
2018-10-11T14:47:17.959Z,7488.00
2018-10-11T14:48:17.938Z,7452.00
2018-10-11T14:49:17.925Z,7528.00
2018-10-11T14:50:17.912Z,7744.00
2018-10-11T14:51:17.925Z,7920.00
2018-10-11T14:52:17.910Z,7984.00
2018-10-11T14:53:17.878Z,7928.00
2018-10-11T14:54:17.872Z,7756.00
2018-10-11T14:55:17.850Z,7492.00
2018-10-11T14:56:17.846Z,7256.00
2018-10-11T14:57:17.897Z,7204.00
2018-10-11T14:58:17.818Z,7148.00
2018-10-11T14:59:17.804Z,7132.00
2018-10-11T15:00:17.807Z,7156.00
2018-10-11T15:01:17.783Z,7176.00
2018-10-11T15:02:17.769Z,7000.00
2018-10-11T15:03:17.870Z,6648.00
2018-10-11T15:04:17.751Z,6216.00
2018-10-11T15:05:17.800Z,5780.00
2018-10-11T15:06:17.722Z,5360.00
2018-10-11T15:07:17.713Z,5012.00
2018-10-11T15:08:17.716Z,4696.00
2018-10-11T15:09:17.696Z,4468.00
2018-10-11T15:10:17.681Z,4260.00
2018-10-11T15:11:17.719Z,4060.00
2018-10-11T15:12:17.667Z,3908.00
2018-10-11T15:13:17.644Z,3816.00
2018-10-11T15:14:17.628Z,3756.00
2018-10-11T15:15:17.616Z,3712.00
2018-10-11T15:16:17.603Z,3688.00
2018-10-11T15:17:17.608Z,3664.00
2018-10-11T15:18:17.579Z,3668.00
2018-10-11T15:19:17.565Z,3716.00
2018-10-11T15:20:17.554Z,3912.00
2018-10-11T15:21:17.543Z,4032.00
2018-10-11T15:22:17.544Z,4116.00
2018-10-11T15:23:17.517Z,4260.00
2018-10-11T15:24:17.505Z,4408.00
2018-10-11T15:25:17.497Z,4540.00
2018-10-11T15:26:17.481Z,4596.00
2018-10-11T15:27:17.513Z,4620.00
2018-10-11T15:28:17.455Z,4632.00
2018-10-11T15:29:17.466Z,4628.00
2018-10-11T15:30:17.432Z,4616.00
2018-10-11T15:31:17.418Z,4580.00
2018-10-11T15:32:17.413Z,4528.00
2018-10-11T15:33:17.406Z,4444.00
2018-10-11T15:34:17.382Z,4340.00
2018-10-11T15:35:17.374Z,4224.00
2018-10-11T15:36:17.358Z,4132.00
2018-10-11T15:37:17.367Z,4100.00
2018-10-11T15:38:17.332Z,4040.00
2018-10-11T15:39:17.321Z,3992.00
2018-10-11T15:40:17.308Z,3924.00
2018-10-11T15:41:17.295Z,3868.00
2018-10-11T15:42:17.282Z,3808.00
2018-10-11T15:43:17.282Z,3780.00
2018-10-11T15:44:17.262Z,3540.00
2018-10-11T15:45:17.248Z,3316.00
2018-10-11T15:46:17.232Z,3248.00
2018-10-11T15:47:17.218Z,3188.00
2018-10-11T15:48:17.217Z,3216.00
2018-10-11T15:49:17.192Z,3464.00
2018-10-11T15:50:17.177Z,3640.00
2018-10-11T15:51:17.167Z,3824.00
2018-10-11T15:52:17.186Z,3948.00
2018-10-11T15:53:17.155Z,4004.00
2018-10-11T15:54:17.129Z,3724.00
2018-10-11T15:55:17.114Z,3496.00
2018-10-11T15:56:17.105Z,3344.00
2018-10-11T15:57:17.090Z,3256.00
2018-10-11T15:58:17.095Z,3184.00
2018-10-11T15:59:17.067Z,3104.00
2018-10-11T16:00:17.062Z,3028.00
2018-10-11T16:01:17.039Z,2944.00
2018-10-11T16:02:17.028Z,2876.00
2018-10-11T16:03:17.051Z,2780.00
2018-10-11T16:04:16.997Z,2676.00
2018-10-11T16:05:16.990Z,2560.00
2018-10-11T16:06:16.978Z,2540.00
2018-10-11T16:07:16.964Z,2600.00
2018-10-11T16:08:16.951Z,2672.00
2018-10-11T16:09:17.088Z,2708.00
2018-10-11T16:10:16.924Z,2732.00
2018-10-11T16:11:16.910Z,2748.00
2018-10-11T16:12:16.895Z,2780.00
2018-10-11T16:13:16.884Z,2760.00
2018-10-11T16:14:16.883Z,2700.00
2018-10-11T16:15:16.857Z,2632.00
2018-10-11T16:16:16.848Z,2548.00
2018-10-11T16:17:16.835Z,2448.00
2018-10-11T16:18:16.821Z,2336.00
2018-10-11T16:19:16.822Z,2244.00
2018-10-11T16:20:16.791Z,2148.00
2018-10-11T16:21:16.786Z,2064.00
2018-10-11T16:22:16.769Z,1972.00
2018-10-11T16:23:16.755Z,1872.00
2018-10-11T16:24:16.759Z,1776.00
2018-10-11T16:25:16.732Z,1672.00
2018-10-11T16:26:16.715Z,1580.00
2018-10-11T16:27:16.698Z,1492.00
2018-10-11T16:28:16.688Z,1420.00
2018-10-11T16:29:16.676Z,1360.00
2018-10-11T16:30:16.677Z,1312.00
2018-10-11T16:31:16.650Z,1264.00
2018-10-11T16:32:16.676Z,1232.00
2018-10-11T16:33:16.621Z,1172.00
2018-10-11T16:34:16.607Z,1104.00
2018-10-11T16:35:16.609Z,1024.00
2018-10-11T16:36:16.583Z,948.00
2018-10-11T16:37:16.567Z,860.00
2018-10-11T16:38:16.555Z,776.00
2018-10-11T16:39:16.585Z,696.00
2018-10-11T16:40:16.543Z,616.00
2018-10-11T16:41:16.513Z,548.00
2018-10-11T16:42:16.499Z,484.00
2018-10-11T16:43:16.485Z,428.00
2018-10-11T16:44:16.470Z,380.00
2018-10-11T16:45:16.478Z,340.00
2018-10-11T16:46:16.445Z,308.00
2018-10-11T16:47:16.433Z,280.00
2018-10-11T16:48:16.420Z,256.00
2018-10-11T16:49:16.412Z,232.00
2018-10-11T16:50:16.425Z,212.00
2018-10-11T16:51:16.376Z,192.00
2018-10-11T16:52:16.369Z,168.00
2018-10-11T16:53:16.356Z,148.00
2018-10-11T16:54:16.338Z,132.00
2018-10-11T16:55:16.341Z,120.00
2018-10-11T16:56:16.308Z,104.00
2018-10-11T16:57:16.297Z,92.00
2018-10-11T16:58:16.280Z,80.00
2018-10-11T16:59:16.279Z,72.00
2018-10-11T17:00:16.280Z,60.00
2018-10-11T17:01:16.240Z,52.00
2018-10-11T17:02:16.223Z,44.00
2018-10-11T17:03:16.207Z,40.00
2018-10-11T17:04:16.339Z,32.00
2018-10-11T17:05:16.199Z,28.00
2018-10-11T17:06:16.172Z,24.00
2018-10-11T17:07:16.153Z,20.00
2018-10-11T17:08:16.139Z,16.00
2018-10-11T17:09:16.126Z,12.00
2018-10-11T17:10:16.131Z,12.00
2018-10-11T17:11:16.094Z,8.00
2018-10-11T17:12:16.091Z,8.00
2018-10-11T17:13:16.070Z,8.00
2018-10-11T17:14:16.054Z,4.00
2018-10-11T17:15:16.053Z,4.00
2018-10-11T17:16:16.022Z,4.00
2018-10-11T17:17:16.022Z,0.00
2018-10-11T17:18:16.007Z,4.00
2018-10-11T17:19:15.979Z,4.00
2018-10-11T17:20:15.983Z,0.00
2018-10-11T17:21:15.954Z,0.00
2018-10-11T17:22:15.947Z,0.00
2018-10-11T17:23:15.933Z,0.00
2018-10-11T17:24:15.908Z,0.00
2018-10-11T17:25:15.910Z,0.00
2018-10-11T17:26:15.880Z,0.00
2018-10-11T17:27:15.865Z,0.00
2018-10-11T17:28:15.860Z,0.00
2018-10-11T17:29:15.838Z,0.00
2018-10-11T17:30:15.840Z,0.00
2018-10-11T17:31:15.812Z,0.00
2018-10-11T17:32:15.793Z,0.00
2018-10-11T17:33:15.783Z,0.00
2018-10-11T17:34:15.764Z,0.00
2018-10-11T17:35:15.785Z,0.00
2018-10-11T17:36:15.742Z,0.00
2018-10-11T17:37:15.729Z,0.00
2018-10-11T17:38:15.713Z,0.00
2018-10-11T17:39:15.693Z,0.00
2018-10-11T17:40:15.700Z,0.00
2018-10-11T17:41:15.664Z,0.00
2018-10-11T17:42:15.697Z,0.00
2018-10-11T17:43:15.631Z,0.00
2018-10-11T17:44:15.621Z,0.00
2018-10-11T17:45:15.605Z,0.00
2018-10-11T17:46:15.608Z,0.00
2018-10-11T17:47:15.576Z,0.00
2018-10-11T17:48:15.560Z,0.00
2018-10-11T17:49:15.545Z,0.00
2018-10-11T17:50:15.585Z,0.00
2018-10-11T17:51:15.552Z,0.00
2018-10-11T17:52:15.501Z,0.00
2018-10-11T17:53:15.485Z,0.00
2018-10-11T17:54:15.471Z,0.00
2018-10-11T17:55:15.456Z,0.00
2018-10-11T17:56:24.357Z,0.00
2018-10-11T17:57:15.428Z,0.00
2018-10-11T17:58:15.412Z,0.00
2018-10-11T17:59:15.400Z,0.00
2018-10-11T18:00:15.384Z,0.00
2018-10-11T18:01:15.367Z,0.00
2018-10-11T18:02:15.369Z,0.00
2018-10-11T18:03:15.364Z,0.00
2018-10-11T18:04:15.320Z,0.00
2018-10-11T18:05:15.308Z,0.00
2018-10-11T18:06:15.292Z,0.00
2018-10-11T18:07:15.296Z,0.00
2018-10-11T18:08:15.261Z,0.00
2018-10-11T18:09:15.257Z,0.00
2018-10-11T18:10:15.229Z,0.00
2018-10-11T18:11:15.220Z,0.00
2018-10-11T18:12:15.204Z,0.00
2018-10-11T18:13:15.203Z,0.00
2018-10-11T18:14:15.173Z,0.00
2018-10-11T18:15:15.157Z,0.00
2018-10-11T18:16:15.188Z,0.00
2018-10-11T18:17:15.131Z,0.00
2018-10-11T18:18:15.126Z,0.00
2018-10-11T18:19:15.095Z,0.00
2018-10-11T18:20:15.080Z,0.00
2018-10-11T18:21:15.081Z,0.00
2018-10-11T18:22:15.052Z,0.00
2018-10-11T18:23:15.075Z,0.00
2018-10-11T18:24:15.022Z,0.00
2018-10-11T18:25:15.007Z,0.00
2018-10-11T18:26:14.988Z,0.00
2018-10-11T18:27:14.983Z,0.00
2018-10-11T18:28:14.976Z,0.00
2018-10-11T18:29:14.964Z,0.00
2018-10-11T18:30:14.927Z,0.00
2018-10-11T18:31:14.919Z,0.00
2018-10-11T18:32:14.902Z,0.00
2018-10-11T18:33:14.900Z,0.00
2018-10-11T18:34:14.869Z,0.00
2018-10-11T18:35:14.854Z,0.00
